sensor_id;sensor_type;location;lat;lon;timestamp;temperature;humidity
48806;DHT22;34625;47.176;27.548;2023-03-31T00:00:25;18.60;45.70
48806;DHT22;34625;47.176;27.548;2023-03-31T00:02:51;18.60;45.60
48806;DHT22;34625;47.176;27.548;2023-03-31T00:05:18;18.50;45.50
48806;DHT22;34625;47.176;27.548;2023-03-31T00:07:46;18.60;45.50
48806;DHT22;34625;47.176;27.548;2023-03-31T00:10:13;18.70;45.60
48806;DHT22;34625;47.176;27.548;2023-03-31T00:12:39;18.60;45.40
48806;DHT22;34625;47.176;27.548;2023-03-31T00:15:05;18.70;45.50
48806;DHT22;34625;47.176;27.548;2023-03-31T00:17:32;18.70;45.60
48806;DHT22;34625;47.176;27.548;2023-03-31T00:19:58;18.70;45.70
48806;DHT22;34625;47.176;27.548;2023-03-31T00:22:25;18.60;45.70
48806;DHT22;34625;47.176;27.548;2023-03-31T00:24:54;18.60;45.70
48806;DHT22;34625;47.176;27.548;2023-03-31T00:27:20;18.50;45.80
48806;DHT22;34625;47.176;27.548;2023-03-31T00:29:46;18.50;45.80
48806;DHT22;34625;47.176;27.548;2023-03-31T00:32:15;18.50;45.90
48806;DHT22;34625;47.176;27.548;2023-03-31T00:34:41;18.40;45.90
48806;DHT22;34625;47.176;27.548;2023-03-31T00:37:06;18.40;45.90
48806;DHT22;34625;47.176;27.548;2023-03-31T00:39:34;18.50;46.00
48806;DHT22;34625;47.176;27.548;2023-03-31T00:42:02;18.40;46.00
48806;DHT22;34625;47.176;27.548;2023-03-31T00:44:28;18.30;46.00
48806;DHT22;34625;47.176;27.548;2023-03-31T00:47:05;18.40;46.00
48806;DHT22;34625;47.176;27.548;2023-03-31T00:49:42;18.30;45.80
48806;DHT22;34625;47.176;27.548;2023-03-31T00:52:12;18.40;45.80
48806;DHT22;34625;47.176;27.548;2023-03-31T00:54:40;18.40;45.80
48806;DHT22;34625;47.176;27.548;2023-03-31T00:57:07;18.30;45.80
48806;DHT22;34625;47.176;27.548;2023-03-31T00:59:36;18.30;45.80
48806;DHT22;34625;47.176;27.548;2023-03-31T01:02:02;18.40;45.90
48806;DHT22;34625;47.176;27.548;2023-03-31T01:04:30;18.30;46.00
48806;DHT22;34625;47.176;27.548;2023-03-31T01:06:58;18.30;46.00
48806;DHT22;34625;47.176;27.548;2023-03-31T01:09:28;18.20;45.90
48806;DHT22;34625;47.176;27.548;2023-03-31T01:12:00;18.40;45.90
48806;DHT22;34625;47.176;27.548;2023-03-31T01:14:27;18.30;45.90
48806;DHT22;34625;47.176;27.548;2023-03-31T01:16:52;18.30;45.80
48806;DHT22;34625;47.176;27.548;2023-03-31T01:19:31;18.40;45.80
48806;DHT22;34625;47.176;27.548;2023-03-31T01:22:22;18.40;45.70
48806;DHT22;34625;47.176;27.548;2023-03-31T01:48:13;18.30;46.10
48806;DHT22;34625;47.176;27.548;2023-03-31T01:53:17;18.20;46.10
48806;DHT22;34625;47.176;27.548;2023-03-31T01:55:49;18.20;46.10
48806;DHT22;34625;47.176;27.548;2023-03-31T02:01:04;18.20;46.20
48806;DHT22;34625;47.176;27.548;2023-03-31T02:03:32;18.20;46.20
48806;DHT22;34625;47.176;27.548;2023-03-31T02:06:02;18.30;46.30
48806;DHT22;34625;47.176;27.548;2023-03-31T02:08:37;18.20;46.10
48806;DHT22;34625;47.176;27.548;2023-03-31T02:11:05;18.20;46.00
48806;DHT22;34625;47.176;27.548;2023-03-31T02:13:31;18.30;46.00
48806;DHT22;34625;47.176;27.548;2023-03-31T02:15:59;18.30;46.00
48806;DHT22;34625;47.176;27.548;2023-03-31T02:18:28;18.30;46.00
48806;DHT22;34625;47.176;27.548;2023-03-31T02:20:58;18.30;46.00
48806;DHT22;34625;47.176;27.548;2023-03-31T02:23:27;18.30;46.10
48806;DHT22;34625;47.176;27.548;2023-03-31T02:25:58;18.30;46.10
48806;DHT22;34625;47.176;27.548;2023-03-31T02:28:25;18.30;46.10
48806;DHT22;34625;47.176;27.548;2023-03-31T02:30:57;18.20;46.10
48806;DHT22;34625;47.176;27.548;2023-03-31T02:33:27;18.20;46.10
48806;DHT22;34625;47.176;27.548;2023-03-31T02:35:53;18.20;46.10
48806;DHT22;34625;47.176;27.548;2023-03-31T02:38:20;18.40;46.10
48806;DHT22;34625;47.176;27.548;2023-03-31T02:40:46;18.30;46.00
48806;DHT22;34625;47.176;27.548;2023-03-31T02:43:12;18.30;46.00
48806;DHT22;34625;47.176;27.548;2023-03-31T02:45:48;18.20;45.90
48806;DHT22;34625;47.176;27.548;2023-03-31T02:50:43;18.30;45.90
48806;DHT22;34625;47.176;27.548;2023-03-31T03:01:02;18.30;45.90
48806;DHT22;34625;47.176;27.548;2023-03-31T03:17:16;18.20;46.20
48806;DHT22;34625;47.176;27.548;2023-03-31T03:19:43;18.10;46.20
48806;DHT22;34625;47.176;27.548;2023-03-31T03:22:09;18.20;46.30
48806;DHT22;34625;47.176;27.548;2023-03-31T03:24:35;18.10;46.40
48806;DHT22;34625;47.176;27.548;2023-03-31T03:27:00;18.10;46.40
48806;DHT22;34625;47.176;27.548;2023-03-31T03:29:26;18.10;46.40
48806;DHT22;34625;47.176;27.548;2023-03-31T03:31:52;18.10;46.50
48806;DHT22;34625;47.176;27.548;2023-03-31T03:34:18;18.10;46.50
48806;DHT22;34625;47.176;27.548;2023-03-31T03:36:45;18.00;46.40
48806;DHT22;34625;47.176;27.548;2023-03-31T03:39:11;18.10;46.30
48806;DHT22;34625;47.176;27.548;2023-03-31T03:41:37;18.30;46.30
48806;DHT22;34625;47.176;27.548;2023-03-31T03:44:03;18.10;46.10
48806;DHT22;34625;47.176;27.548;2023-03-31T03:46:29;18.20;46.10
48806;DHT22;34625;47.176;27.548;2023-03-31T03:48:55;18.20;46.00
48806;DHT22;34625;47.176;27.548;2023-03-31T03:51:21;18.30;46.20
48806;DHT22;34625;47.176;27.548;2023-03-31T03:53:47;18.20;46.20
48806;DHT22;34625;47.176;27.548;2023-03-31T03:56:13;18.30;46.40
48806;DHT22;34625;47.176;27.548;2023-03-31T03:58:39;18.10;46.40
48806;DHT22;34625;47.176;27.548;2023-03-31T04:01:05;18.10;46.50
48806;DHT22;34625;47.176;27.548;2023-03-31T04:03:31;18.20;46.60
48806;DHT22;34625;47.176;27.548;2023-03-31T04:05:57;18.10;46.50
48806;DHT22;34625;47.176;27.548;2023-03-31T04:08:23;18.20;46.40
48806;DHT22;34625;47.176;27.548;2023-03-31T04:10:49;18.20;46.10
48806;DHT22;34625;47.176;27.548;2023-03-31T04:13:15;18.20;46.10
48806;DHT22;34625;47.176;27.548;2023-03-31T04:15:41;18.30;46.10
48806;DHT22;34625;47.176;27.548;2023-03-31T04:18:08;18.40;46.20
48806;DHT22;34625;47.176;27.548;2023-03-31T04:20:38;18.30;46.10
48806;DHT22;34625;47.176;27.548;2023-03-31T04:23:04;18.30;46.10
48806;DHT22;34625;47.176;27.548;2023-03-31T04:25:34;18.40;46.00
48806;DHT22;34625;47.176;27.548;2023-03-31T04:28:03;18.40;45.90
48806;DHT22;34625;47.176;27.548;2023-03-31T04:30:31;18.30;46.00
48806;DHT22;34625;47.176;27.548;2023-03-31T04:32:58;18.30;46.00
48806;DHT22;34625;47.176;27.548;2023-03-31T04:35:25;18.30;46.10
48806;DHT22;34625;47.176;27.548;2023-03-31T04:37:51;18.30;46.20
48806;DHT22;34625;47.176;27.548;2023-03-31T04:40:23;18.30;46.20
48806;DHT22;34625;47.176;27.548;2023-03-31T04:42:49;18.20;46.20
48806;DHT22;34625;47.176;27.548;2023-03-31T04:45:16;18.10;46.30
48806;DHT22;34625;47.176;27.548;2023-03-31T04:47:42;18.10;46.40
48806;DHT22;34625;47.176;27.548;2023-03-31T04:50:08;18.20;46.50
48806;DHT22;34625;47.176;27.548;2023-03-31T04:52:35;18.10;46.50
48806;DHT22;34625;47.176;27.548;2023-03-31T04:55:01;18.10;46.50
48806;DHT22;34625;47.176;27.548;2023-03-31T04:57:28;18.10;46.60
48806;DHT22;34625;47.176;27.548;2023-03-31T04:59:53;18.00;46.50
48806;DHT22;34625;47.176;27.548;2023-03-31T05:02:20;18.00;46.60
48806;DHT22;34625;47.176;27.548;2023-03-31T05:04:48;18.10;46.70
48806;DHT22;34625;47.176;27.548;2023-03-31T05:07:15;18.10;46.60
48806;DHT22;34625;47.176;27.548;2023-03-31T05:09:41;18.10;46.50
48806;DHT22;34625;47.176;27.548;2023-03-31T05:12:07;18.10;46.40
48806;DHT22;34625;47.176;27.548;2023-03-31T05:14:33;18.10;46.40
48806;DHT22;34625;47.176;27.548;2023-03-31T05:16:59;18.20;46.30
48806;DHT22;34625;47.176;27.548;2023-03-31T05:19:25;18.10;46.30
48806;DHT22;34625;47.176;27.548;2023-03-31T05:21:51;18.30;46.30
48806;DHT22;34625;47.176;27.548;2023-03-31T05:24:17;18.20;46.30
48806;DHT22;34625;47.176;27.548;2023-03-31T05:26:43;18.30;46.30
48806;DHT22;34625;47.176;27.548;2023-03-31T05:29:14;18.10;46.30
48806;DHT22;34625;47.176;27.548;2023-03-31T05:31:41;18.10;46.40
48806;DHT22;34625;47.176;27.548;2023-03-31T05:34:07;18.00;46.50
48806;DHT22;34625;47.176;27.548;2023-03-31T05:36:32;17.90;46.50
48806;DHT22;34625;47.176;27.548;2023-03-31T05:38:59;18.20;46.50
48806;DHT22;34625;47.176;27.548;2023-03-31T05:41:25;18.20;46.40
48806;DHT22;34625;47.176;27.548;2023-03-31T05:43:51;18.10;46.30
48806;DHT22;34625;47.176;27.548;2023-03-31T05:46:17;18.10;46.20
48806;DHT22;34625;47.176;27.548;2023-03-31T05:48:43;18.30;46.30
48806;DHT22;34625;47.176;27.548;2023-03-31T05:51:09;18.20;46.10
48806;DHT22;34625;47.176;27.548;2023-03-31T05:53:35;18.30;46.10
48806;DHT22;34625;47.176;27.548;2023-03-31T05:56:02;18.30;46.10
48806;DHT22;34625;47.176;27.548;2023-03-31T05:58:28;18.30;46.10
48806;DHT22;34625;47.176;27.548;2023-03-31T06:01:14;18.40;46.00
48806;DHT22;34625;47.176;27.548;2023-03-31T06:03:44;18.20;45.90
48806;DHT22;34625;47.176;27.548;2023-03-31T06:06:10;18.20;45.90
48806;DHT22;34625;47.176;27.548;2023-03-31T06:08:39;18.30;46.00
48806;DHT22;34625;47.176;27.548;2023-03-31T06:11:06;18.20;45.90
48806;DHT22;34625;47.176;27.548;2023-03-31T06:13:32;18.20;45.90
48806;DHT22;34625;47.176;27.548;2023-03-31T06:15:59;18.30;46.10
48806;DHT22;34625;47.176;27.548;2023-03-31T06:18:26;18.20;46.10
48806;DHT22;34625;47.176;27.548;2023-03-31T06:20:53;18.20;46.10
48806;DHT22;34625;47.176;27.548;2023-03-31T06:23:19;18.10;46.10
48806;DHT22;34625;47.176;27.548;2023-03-31T06:25:45;18.20;46.10
48806;DHT22;34625;47.176;27.548;2023-03-31T06:28:11;18.20;46.10
48806;DHT22;34625;47.176;27.548;2023-03-31T06:30:37;18.20;46.20
48806;DHT22;34625;47.176;27.548;2023-03-31T06:33:03;18.20;46.30
48806;DHT22;34625;47.176;27.548;2023-03-31T06:35:29;18.20;46.30
48806;DHT22;34625;47.176;27.548;2023-03-31T06:37:55;18.40;46.30
48806;DHT22;34625;47.176;27.548;2023-03-31T06:40:21;18.30;46.20
48806;DHT22;34625;47.176;27.548;2023-03-31T06:42:46;18.30;46.10
48806;DHT22;34625;47.176;27.548;2023-03-31T06:45:12;18.40;46.10
48806;DHT22;34625;47.176;27.548;2023-03-31T06:47:38;18.30;45.90
48806;DHT22;34625;47.176;27.548;2023-03-31T06:50:06;18.40;45.90
48806;DHT22;34625;47.176;27.548;2023-03-31T06:52:33;18.40;45.90
48806;DHT22;34625;47.176;27.548;2023-03-31T06:54:58;18.40;46.00
48806;DHT22;34625;47.176;27.548;2023-03-31T06:57:25;18.30;46.10
48806;DHT22;34625;47.176;27.548;2023-03-31T06:59:51;18.30;46.10
48806;DHT22;34625;47.176;27.548;2023-03-31T07:02:17;18.30;46.10
48806;DHT22;34625;47.176;27.548;2023-03-31T07:04:43;18.30;46.30
48806;DHT22;34625;47.176;27.548;2023-03-31T07:07:09;18.30;46.20
48806;DHT22;34625;47.176;27.548;2023-03-31T07:09:35;18.40;46.10
48806;DHT22;34625;47.176;27.548;2023-03-31T07:12:01;18.40;46.10
48806;DHT22;34625;47.176;27.548;2023-03-31T07:14:30;18.40;46.10
48806;DHT22;34625;47.176;27.548;2023-03-31T07:16:56;18.40;46.00
48806;DHT22;34625;47.176;27.548;2023-03-31T07:19:22;18.50;46.00
48806;DHT22;34625;47.176;27.548;2023-03-31T07:21:48;18.50;45.90
48806;DHT22;34625;47.176;27.548;2023-03-31T07:24:14;18.50;45.80
48806;DHT22;34625;47.176;27.548;2023-03-31T07:26:40;18.60;45.70
48806;DHT22;34625;47.176;27.548;2023-03-31T07:29:06;18.50;45.70
48806;DHT22;34625;47.176;27.548;2023-03-31T07:31:32;18.40;45.60
48806;DHT22;34625;47.176;27.548;2023-03-31T07:33:59;18.50;45.80
48806;DHT22;34625;47.176;27.548;2023-03-31T07:36:25;18.40;45.60
48806;DHT22;34625;47.176;27.548;2023-03-31T07:38:51;18.40;45.60
48806;DHT22;34625;47.176;27.548;2023-03-31T07:41:18;18.50;45.80
48806;DHT22;34625;47.176;27.548;2023-03-31T07:43:44;18.40;45.80
48806;DHT22;34625;47.176;27.548;2023-03-31T07:46:14;18.50;45.80
48806;DHT22;34625;47.176;27.548;2023-03-31T07:48:41;18.40;45.80
48806;DHT22;34625;47.176;27.548;2023-03-31T07:51:08;18.50;45.80
48806;DHT22;34625;47.176;27.548;2023-03-31T07:53:35;18.50;45.90
48806;DHT22;34625;47.176;27.548;2023-03-31T07:56:01;18.30;45.80
48806;DHT22;34625;47.176;27.548;2023-03-31T07:58:27;18.40;45.90
48806;DHT22;34625;47.176;27.548;2023-03-31T08:00:53;18.30;46.00
48806;DHT22;34625;47.176;27.548;2023-03-31T08:03:19;18.30;46.10
48806;DHT22;34625;47.176;27.548;2023-03-31T08:05:45;18.30;46.30
48806;DHT22;34625;47.176;27.548;2023-03-31T08:08:11;18.30;46.30
48806;DHT22;34625;47.176;27.548;2023-03-31T08:10:37;18.30;46.10
48806;DHT22;34625;47.176;27.548;2023-03-31T08:13:02;18.40;46.10
48806;DHT22;34625;47.176;27.548;2023-03-31T08:15:28;18.40;46.00
48806;DHT22;34625;47.176;27.548;2023-03-31T08:17:54;18.40;46.00
48806;DHT22;34625;47.176;27.548;2023-03-31T08:20:20;18.40;46.00
48806;DHT22;34625;47.176;27.548;2023-03-31T08:22:46;18.40;45.90
48806;DHT22;34625;47.176;27.548;2023-03-31T08:25:12;18.50;45.90
48806;DHT22;34625;47.176;27.548;2023-03-31T08:27:39;18.50;45.80
48806;DHT22;34625;47.176;27.548;2023-03-31T08:30:06;18.50;45.70
48806;DHT22;34625;47.176;27.548;2023-03-31T08:32:33;18.50;45.80
48806;DHT22;34625;47.176;27.548;2023-03-31T08:34:59;18.50;45.90
48806;DHT22;34625;47.176;27.548;2023-03-31T08:37:25;18.40;45.90
48806;DHT22;34625;47.176;27.548;2023-03-31T08:39:53;18.40;45.90
48806;DHT22;34625;47.176;27.548;2023-03-31T08:42:20;18.50;45.90
48806;DHT22;34625;47.176;27.548;2023-03-31T08:44:56;18.50;45.80
48806;DHT22;34625;47.176;27.548;2023-03-31T08:47:23;18.60;45.70
48806;DHT22;34625;47.176;27.548;2023-03-31T08:49:51;18.70;45.70
48806;DHT22;34625;47.176;27.548;2023-03-31T08:52:21;18.60;45.60
48806;DHT22;34625;47.176;27.548;2023-03-31T08:54:50;18.70;45.60
48806;DHT22;34625;47.176;27.548;2023-03-31T08:57:19;18.70;45.60
48806;DHT22;34625;47.176;27.548;2023-03-31T08:59:46;18.70;45.50
48806;DHT22;34625;47.176;27.548;2023-03-31T09:04:46;18.70;45.50
48806;DHT22;34625;47.176;27.548;2023-03-31T09:12:56;18.50;45.50
48806;DHT22;34625;47.176;27.548;2023-03-31T09:15:31;18.70;45.60
48806;DHT22;34625;47.176;27.548;2023-03-31T09:18:02;18.70;45.60
48806;DHT22;34625;47.176;27.548;2023-03-31T09:20:30;18.50;45.60
48806;DHT22;34625;47.176;27.548;2023-03-31T09:25:25;18.60;45.50
48806;DHT22;34625;47.176;27.548;2023-03-31T09:27:53;18.60;45.60
48806;DHT22;34625;47.176;27.548;2023-03-31T09:30:21;18.60;45.60
48806;DHT22;34625;47.176;27.548;2023-03-31T09:32:53;18.50;45.60
48806;DHT22;34625;47.176;27.548;2023-03-31T09:35:24;18.60;45.70
48806;DHT22;34625;47.176;27.548;2023-03-31T09:37:51;18.70;45.90
48806;DHT22;34625;47.176;27.548;2023-03-31T09:40:18;18.60;45.80
48806;DHT22;34625;47.176;27.548;2023-03-31T09:42:45;18.60;45.70
48806;DHT22;34625;47.176;27.548;2023-03-31T09:45:15;18.60;45.60
48806;DHT22;34625;47.176;27.548;2023-03-31T09:47:42;18.70;45.60
48806;DHT22;34625;47.176;27.548;2023-03-31T09:50:09;18.70;45.60
48806;DHT22;34625;47.176;27.548;2023-03-31T09:55:39;18.80;45.60
48806;DHT22;34625;47.176;27.548;2023-03-31T09:58:11;18.60;45.50
48806;DHT22;34625;47.176;27.548;2023-03-31T10:00:37;18.70;45.70
48806;DHT22;34625;47.176;27.548;2023-03-31T10:03:05;18.40;45.50
48806;DHT22;34625;47.176;27.548;2023-03-31T10:05:37;18.60;45.50
48806;DHT22;34625;47.176;27.548;2023-03-31T10:08:11;18.70;45.80
48806;DHT22;34625;47.176;27.548;2023-03-31T10:10:42;18.80;45.60
48806;DHT22;34625;47.176;27.548;2023-03-31T10:13:08;18.80;45.50
48806;DHT22;34625;47.176;27.548;2023-03-31T10:15:38;18.90;45.30
48806;DHT22;34625;47.176;27.548;2023-03-31T10:18:04;18.90;45.30
48806;DHT22;34625;47.176;27.548;2023-03-31T10:20:32;19.10;45.20
48806;DHT22;34625;47.176;27.548;2023-03-31T10:23:02;19.00;45.20
48806;DHT22;34625;47.176;27.548;2023-03-31T10:25:29;19.00;45.00
48806;DHT22;34625;47.176;27.548;2023-03-31T10:27:55;19.00;44.90
48806;DHT22;34625;47.176;27.548;2023-03-31T10:30:25;19.10;44.90
48806;DHT22;34625;47.176;27.548;2023-03-31T10:32:53;19.00;44.90
48806;DHT22;34625;47.176;27.548;2023-03-31T10:35:30;19.00;45.00
48806;DHT22;34625;47.176;27.548;2023-03-31T10:37:58;19.10;45.10
48806;DHT22;34625;47.176;27.548;2023-03-31T10:40:25;19.10;45.00
48806;DHT22;34625;47.176;27.548;2023-03-31T10:42:58;19.10;45.00
48806;DHT22;34625;47.176;27.548;2023-03-31T10:45:27;19.10;44.90
48806;DHT22;34625;47.176;27.548;2023-03-31T10:47:54;19.00;44.80
48806;DHT22;34625;47.176;27.548;2023-03-31T10:50:25;19.10;45.00
48806;DHT22;34625;47.176;27.548;2023-03-31T10:52:51;19.10;45.00
48806;DHT22;34625;47.176;27.548;2023-03-31T10:55:21;19.20;45.00
48806;DHT22;34625;47.176;27.548;2023-03-31T10:57:52;19.10;44.90
48806;DHT22;34625;47.176;27.548;2023-03-31T11:02:53;19.20;45.00
48806;DHT22;34625;47.176;27.548;2023-03-31T11:10:40;19.20;45.10
48806;DHT22;34625;47.176;27.548;2023-03-31T11:15:50;19.30;45.20
48806;DHT22;34625;47.176;27.548;2023-03-31T11:23:40;19.20;45.00
48806;DHT22;34625;47.176;27.548;2023-03-31T11:33:43;19.10;45.00
48806;DHT22;34625;47.176;27.548;2023-03-31T11:41:36;19.20;45.30
48806;DHT22;34625;47.176;27.548;2023-03-31T11:44:05;19.30;45.50
48806;DHT22;34625;47.176;27.548;2023-03-31T11:46:43;19.20;45.30
48806;DHT22;34625;47.176;27.548;2023-03-31T11:49:32;19.10;45.30
48806;DHT22;34625;47.176;27.548;2023-03-31T11:52:01;19.20;45.30
48806;DHT22;34625;47.176;27.548;2023-03-31T11:57:24;19.40;45.50
48806;DHT22;34625;47.176;27.548;2023-03-31T11:59:56;19.20;45.30
48806;DHT22;34625;47.176;27.548;2023-03-31T12:02:32;19.10;45.30
48806;DHT22;34625;47.176;27.548;2023-03-31T12:05:03;19.30;45.50
48806;DHT22;34625;47.176;27.548;2023-03-31T12:09:58;19.10;45.60
48806;DHT22;34625;47.176;27.548;2023-03-31T12:12:38;19.10;45.60
48806;DHT22;34625;47.176;27.548;2023-03-31T12:17:42;19.10;45.80
48806;DHT22;34625;47.176;27.548;2023-03-31T12:22:48;19.10;45.80
48806;DHT22;34625;47.176;27.548;2023-03-31T12:25:14;19.10;45.90
48806;DHT22;34625;47.176;27.548;2023-03-31T12:27:44;19.00;45.90
48806;DHT22;34625;47.176;27.548;2023-03-31T12:30:19;19.00;45.90
48806;DHT22;34625;47.176;27.548;2023-03-31T12:33:06;19.00;46.00
48806;DHT22;34625;47.176;27.548;2023-03-31T12:35:45;19.00;46.00
48806;DHT22;34625;47.176;27.548;2023-03-31T12:51:21;19.00;46.50
48806;DHT22;34625;47.176;27.548;2023-03-31T12:53:58;18.90;46.50
48806;DHT22;34625;47.176;27.548;2023-03-31T12:56:25;18.90;46.50
48806;DHT22;34625;47.176;27.548;2023-03-31T12:58:51;18.90;46.40
48806;DHT22;34625;47.176;27.548;2023-03-31T13:01:23;19.00;46.50
48806;DHT22;34625;47.176;27.548;2023-03-31T13:14:21;19.00;46.60
48806;DHT22;34625;47.176;27.548;2023-03-31T13:16:48;19.00;46.60
48806;DHT22;34625;47.176;27.548;2023-03-31T13:22:37;19.10;46.70
48806;DHT22;34625;47.176;27.548;2023-03-31T13:27:49;19.00;46.40
48806;DHT22;34625;47.176;27.548;2023-03-31T13:33:14;19.10;46.30
48806;DHT22;34625;47.176;27.548;2023-03-31T13:35:43;19.10;46.30
48806;DHT22;34625;47.176;27.548;2023-03-31T14:05:23;19.10;46.60
48806;DHT22;34625;47.176;27.548;2023-03-31T14:10:26;19.00;46.40
48806;DHT22;34625;47.176;27.548;2023-03-31T14:13:02;19.00;46.40
48806;DHT22;34625;47.176;27.548;2023-03-31T14:15:28;19.10;46.60
48806;DHT22;34625;47.176;27.548;2023-03-31T14:17:54;19.10;46.60
48806;DHT22;34625;47.176;27.548;2023-03-31T14:33:00;19.20;46.30
48806;DHT22;34625;47.176;27.548;2023-03-31T14:35:34;19.20;46.30
48806;DHT22;34625;47.176;27.548;2023-03-31T14:38:04;19.10;46.30
48806;DHT22;34625;47.176;27.548;2023-03-31T14:40:31;19.20;46.40
48806;DHT22;34625;47.176;27.548;2023-03-31T14:42:57;19.20;46.40
48806;DHT22;34625;47.176;27.548;2023-03-31T14:45:24;19.10;46.50
48806;DHT22;34625;47.176;27.548;2023-03-31T14:50:43;19.20;46.50
48806;DHT22;34625;47.176;27.548;2023-03-31T14:53:14;19.30;46.50
48806;DHT22;34625;47.176;27.548;2023-03-31T14:55:40;19.10;46.30
48806;DHT22;34625;47.176;27.548;2023-03-31T14:58:07;19.30;46.50
48806;DHT22;34625;47.176;27.548;2023-03-31T15:00:36;19.30;46.50
48806;DHT22;34625;47.176;27.548;2023-03-31T15:03:04;19.30;46.50
48806;DHT22;34625;47.176;27.548;2023-03-31T15:05:33;19.40;46.40
48806;DHT22;34625;47.176;27.548;2023-03-31T15:08:02;19.30;46.40
48806;DHT22;34625;47.176;27.548;2023-03-31T15:10:31;19.40;46.30
48806;DHT22;34625;47.176;27.548;2023-03-31T15:12:58;19.40;46.30
48806;DHT22;34625;47.176;27.548;2023-03-31T15:15:26;19.40;46.30
48806;DHT22;34625;47.176;27.548;2023-03-31T15:17:52;19.40;46.30
48806;DHT22;34625;47.176;27.548;2023-03-31T15:20:29;19.30;46.30
48806;DHT22;34625;47.176;27.548;2023-03-31T15:22:56;19.40;46.30
48806;DHT22;34625;47.176;27.548;2023-03-31T15:25:23;19.30;46.40
48806;DHT22;34625;47.176;27.548;2023-03-31T15:27:56;19.30;46.50
48806;DHT22;34625;47.176;27.548;2023-03-31T15:30:24;19.20;46.50
48806;DHT22;34625;47.176;27.548;2023-03-31T15:32:51;19.20;46.50
48806;DHT22;34625;47.176;27.548;2023-03-31T15:35:33;19.20;46.60
48806;DHT22;34625;47.176;27.548;2023-03-31T15:38:01;19.10;46.70
48806;DHT22;34625;47.176;27.548;2023-03-31T15:40:28;19.10;46.70
48806;DHT22;34625;47.176;27.548;2023-03-31T15:43:13;19.10;46.70
48806;DHT22;34625;47.176;27.548;2023-03-31T15:45:45;19.10;46.60
48806;DHT22;34625;47.176;27.548;2023-03-31T15:51:05;19.10;46.80
48806;DHT22;34625;47.176;27.548;2023-03-31T15:53:35;19.10;46.90
48806;DHT22;34625;47.176;27.548;2023-03-31T15:56:01;19.20;46.90
48806;DHT22;34625;47.176;27.548;2023-03-31T15:58:47;19.10;46.90
48806;DHT22;34625;47.176;27.548;2023-03-31T16:01:17;19.10;47.10
48806;DHT22;34625;47.176;27.548;2023-03-31T16:03:43;19.10;47.00
48806;DHT22;34625;47.176;27.548;2023-03-31T16:08:42;19.10;47.30
48806;DHT22;34625;47.176;27.548;2023-03-31T16:11:16;18.90;47.30
48806;DHT22;34625;47.176;27.548;2023-03-31T16:13:44;19.00;47.40
48806;DHT22;34625;47.176;27.548;2023-03-31T16:16:12;18.90;47.60
48806;DHT22;34625;47.176;27.548;2023-03-31T16:18:40;18.90;47.80
48806;DHT22;34625;47.176;27.548;2023-03-31T16:21:08;18.90;48.00
48806;DHT22;34625;47.176;27.548;2023-03-31T16:23:36;18.80;48.00
48806;DHT22;34625;47.176;27.548;2023-03-31T16:26:05;18.90;48.10
48806;DHT22;34625;47.176;27.548;2023-03-31T16:28:32;18.90;48.00
48806;DHT22;34625;47.176;27.548;2023-03-31T16:30:58;19.00;48.00
48806;DHT22;34625;47.176;27.548;2023-03-31T16:33:26;19.00;47.90
48806;DHT22;34625;47.176;27.548;2023-03-31T16:35:53;19.00;47.90
48806;DHT22;34625;47.176;27.548;2023-03-31T16:38:21;19.00;47.80
48806;DHT22;34625;47.176;27.548;2023-03-31T16:40:48;19.10;47.90
48806;DHT22;34625;47.176;27.548;2023-03-31T16:45:45;19.00;47.80
48806;DHT22;34625;47.176;27.548;2023-03-31T16:48:13;19.10;47.90
48806;DHT22;34625;47.176;27.548;2023-03-31T16:50:39;19.00;47.80
48806;DHT22;34625;47.176;27.548;2023-03-31T16:53:05;18.90;47.90
48806;DHT22;34625;47.176;27.548;2023-03-31T16:55:31;19.00;47.90
48806;DHT22;34625;47.176;27.548;2023-03-31T16:57:58;18.90;48.00
48806;DHT22;34625;47.176;27.548;2023-03-31T17:00:28;18.90;48.00
48806;DHT22;34625;47.176;27.548;2023-03-31T17:02:54;18.80;48.00
48806;DHT22;34625;47.176;27.548;2023-03-31T17:05:21;18.80;48.00
48806;DHT22;34625;47.176;27.548;2023-03-31T17:07:47;18.80;48.00
48806;DHT22;34625;47.176;27.548;2023-03-31T17:10:13;18.70;48.10
48806;DHT22;34625;47.176;27.548;2023-03-31T17:12:40;18.80;48.10
48806;DHT22;34625;47.176;27.548;2023-03-31T17:15:06;18.70;48.10
48806;DHT22;34625;47.176;27.548;2023-03-31T17:17:32;18.80;48.10
48806;DHT22;34625;47.176;27.548;2023-03-31T17:19:58;18.80;48.30
48806;DHT22;34625;47.176;27.548;2023-03-31T17:22:25;18.80;48.40
48806;DHT22;34625;47.176;27.548;2023-03-31T17:24:51;18.80;48.40
48806;DHT22;34625;47.176;27.548;2023-03-31T17:27:21;18.70;48.40
48806;DHT22;34625;47.176;27.548;2023-03-31T17:29:47;18.80;48.40
48806;DHT22;34625;47.176;27.548;2023-03-31T17:32:13;18.70;48.40
48806;DHT22;34625;47.176;27.548;2023-03-31T17:34:40;18.70;48.30
48806;DHT22;34625;47.176;27.548;2023-03-31T17:37:06;18.70;48.30
48806;DHT22;34625;47.176;27.548;2023-03-31T17:39:32;18.70;48.30
48806;DHT22;34625;47.176;27.548;2023-03-31T17:41:58;18.80;48.30
48806;DHT22;34625;47.176;27.548;2023-03-31T17:44:24;18.70;48.30
48806;DHT22;34625;47.176;27.548;2023-03-31T17:46:50;18.80;48.40
48806;DHT22;34625;47.176;27.548;2023-03-31T17:49:16;18.70;48.40
48806;DHT22;34625;47.176;27.548;2023-03-31T17:51:42;18.60;48.40
48806;DHT22;34625;47.176;27.548;2023-03-31T17:54:09;18.60;48.50
48806;DHT22;34625;47.176;27.548;2023-03-31T17:56:35;18.60;48.50
48806;DHT22;34625;47.176;27.548;2023-03-31T17:59:01;18.60;48.60
48806;DHT22;34625;47.176;27.548;2023-03-31T18:01:28;18.40;48.60
48806;DHT22;34625;47.176;27.548;2023-03-31T18:03:54;18.60;48.80
48806;DHT22;34625;47.176;27.548;2023-03-31T18:06:20;18.60;48.80
48806;DHT22;34625;47.176;27.548;2023-03-31T18:08:46;18.70;48.80
48806;DHT22;34625;47.176;27.548;2023-03-31T18:11:12;18.60;48.60
48806;DHT22;34625;47.176;27.548;2023-03-31T18:13:38;18.60;48.50
48806;DHT22;34625;47.176;27.548;2023-03-31T18:16:04;18.60;48.50
48806;DHT22;34625;47.176;27.548;2023-03-31T18:18:30;18.60;48.40
48806;DHT22;34625;47.176;27.548;2023-03-31T18:21:01;18.60;48.40
48806;DHT22;34625;47.176;27.548;2023-03-31T18:23:27;18.70;48.60
48806;DHT22;34625;47.176;27.548;2023-03-31T18:25:52;18.60;48.60
48806;DHT22;34625;47.176;27.548;2023-03-31T18:28:18;18.60;48.80
48806;DHT22;34625;47.176;27.548;2023-03-31T18:30:45;18.60;49.00